sensor_id;sensor_type;location;lat;lon;timestamp;temperature;humidity
70593;DHT22;58294;42.988;20.338;2023-02-28T00:02:18;179.50;1868.80
70593;DHT22;58294;42.988;20.338;2023-02-28T00:04:43;179.50;1868.80
70593;DHT22;58294;42.988;20.338;2023-02-28T00:07:09;179.50;1868.80
70593;DHT22;58294;42.988;20.338;2023-02-28T00:09:34;179.50;1894.40
70593;DHT22;58294;42.988;20.338;2023-02-28T00:12:00;179.50;1894.40
70593;DHT22;58294;42.988;20.338;2023-02-28T00:14:35;179.60;1894.40
70593;DHT22;58294;42.988;20.338;2023-02-28T00:17:01;179.60;1894.40
70593;DHT22;58294;42.988;20.338;2023-02-28T00:19:26;179.50;1843.20
70593;DHT22;58294;42.988;20.338;2023-02-28T00:21:52;179.50;1868.80
70593;DHT22;58294;42.988;20.338;2023-02-28T00:24:17;179.50;1868.80
70593;DHT22;58294;42.988;20.338;2023-02-28T00:26:43;179.50;1894.40
70593;DHT22;58294;42.988;20.338;2023-02-28T00:29:09;179.50;1894.40
70593;DHT22;58294;42.988;20.338;2023-02-28T00:31:35;179.50;1868.80
70593;DHT22;58294;42.988;20.338;2023-02-28T00:34:00;179.30;1868.80
70593;DHT22;58294;42.988;20.338;2023-02-28T00:36:26;179.40;1894.40
70593;DHT22;58294;42.988;20.338;2023-02-28T00:38:51;179.30;1920.00
70593;DHT22;58294;42.988;20.338;2023-02-28T00:41:17;179.30;1894.40
70593;DHT22;58294;42.988;20.338;2023-02-28T00:43:43;179.30;1920.00
70593;DHT22;58294;42.988;20.338;2023-02-28T00:46:08;179.30;1920.00
70593;DHT22;58294;42.988;20.338;2023-02-28T00:48:34;179.20;1920.00
70593;DHT22;58294;42.988;20.338;2023-02-28T00:51:00;179.20;1920.00
70593;DHT22;58294;42.988;20.338;2023-02-28T00:53:25;179.30;1920.00
70593;DHT22;58294;42.988;20.338;2023-02-28T00:55:51;179.30;1920.00
70593;DHT22;58294;42.988;20.338;2023-02-28T00:58:16;179.20;1894.40
70593;DHT22;58294;42.988;20.338;2023-02-28T01:00:42;179.20;1894.40
70593;DHT22;58294;42.988;20.338;2023-02-28T01:03:07;179.20;1920.00
70593;DHT22;58294;42.988;20.338;2023-02-28T01:05:33;179.20;1920.00
70593;DHT22;58294;42.988;20.338;2023-02-28T01:07:58;179.20;1945.60
70593;DHT22;58294;42.988;20.338;2023-02-28T01:10:24;179.20;1945.60
70593;DHT22;58294;42.988;20.338;2023-02-28T01:12:50;179.30;1945.60
70593;DHT22;58294;42.988;20.338;2023-02-28T01:15:16;179.30;1945.60
70593;DHT22;58294;42.988;20.338;2023-02-28T01:17:41;179.30;1920.00
70593;DHT22;58294;42.988;20.338;2023-02-28T01:20:07;179.30;1945.60
70593;DHT22;58294;42.988;20.338;2023-02-28T01:22:34;179.30;1945.60
70593;DHT22;58294;42.988;20.338;2023-02-28T01:24:59;179.40;1920.00
70593;DHT22;58294;42.988;20.338;2023-02-28T01:27:25;179.30;1920.00
70593;DHT22;58294;42.988;20.338;2023-02-28T01:29:51;179.30;1920.00
70593;DHT22;58294;42.988;20.338;2023-02-28T01:32:17;179.30;1920.00
70593;DHT22;58294;42.988;20.338;2023-02-28T01:34:43;179.30;1920.00
70593;DHT22;58294;42.988;20.338;2023-02-28T01:37:08;179.40;1945.60
70593;DHT22;58294;42.988;20.338;2023-02-28T01:39:34;179.30;1920.00
70593;DHT22;58294;42.988;20.338;2023-02-28T01:41:59;179.30;1920.00
70593;DHT22;58294;42.988;20.338;2023-02-28T01:47:09;179.30;1920.00
70593;DHT22;58294;42.988;20.338;2023-02-28T01:49:35;179.30;1920.00
70593;DHT22;58294;42.988;20.338;2023-02-28T01:52:00;179.30;1920.00
70593;DHT22;58294;42.988;20.338;2023-02-28T01:54:27;179.20;1894.40
70593;DHT22;58294;42.988;20.338;2023-02-28T01:56:55;179.20;1920.00
70593;DHT22;58294;42.988;20.338;2023-02-28T01:59:24;179.20;1945.60
70593;DHT22;58294;42.988;20.338;2023-02-28T02:01:52;179.20;1945.60
70593;DHT22;58294;42.988;20.338;2023-02-28T02:04:18;179.20;1945.60
70593;DHT22;58294;42.988;20.338;2023-02-28T02:06:45;179.20;1945.60
70593;DHT22;58294;42.988;20.338;2023-02-28T02:09:12;179.20;1945.60
70593;DHT22;58294;42.988;20.338;2023-02-28T02:11:39;179.30;1945.60
70593;DHT22;58294;42.988;20.338;2023-02-28T02:16:34;179.30;1945.60
70593;DHT22;58294;42.988;20.338;2023-02-28T02:19:12;179.30;1945.60
70593;DHT22;58294;42.988;20.338;2023-02-28T02:21:54;179.20;1945.60
70593;DHT22;58294;42.988;20.338;2023-02-28T02:29:57;179.20;1945.60
70593;DHT22;58294;42.988;20.338;2023-02-28T02:35:12;179.30;1971.20
70593;DHT22;58294;42.988;20.338;2023-02-28T02:37:47;179.30;1945.60
70593;DHT22;58294;42.988;20.338;2023-02-28T02:40:15;179.30;1945.60
70593;DHT22;58294;42.988;20.338;2023-02-28T02:42:44;179.40;1945.60
70593;DHT22;58294;42.988;20.338;2023-02-28T02:47:40;179.30;1945.60
70593;DHT22;58294;42.988;20.338;2023-02-28T02:50:07;179.40;1945.60
70593;DHT22;58294;42.988;20.338;2023-02-28T02:52:38;179.40;1920.00
70593;DHT22;58294;42.988;20.338;2023-02-28T02:55:05;179.30;1920.00
70593;DHT22;58294;42.988;20.338;2023-02-28T03:00:09;179.30;1945.60
70593;DHT22;58294;42.988;20.338;2023-02-28T03:02:36;179.30;1945.60
70593;DHT22;58294;42.988;20.338;2023-02-28T03:05:04;179.30;1971.20
70593;DHT22;58294;42.988;20.338;2023-02-28T03:07:31;179.30;1945.60
70593;DHT22;58294;42.988;20.338;2023-02-28T03:09:58;179.30;1945.60
70593;DHT22;58294;42.988;20.338;2023-02-28T03:12:27;179.30;1945.60
70593;DHT22;58294;42.988;20.338;2023-02-28T03:20:07;179.30;1971.20
70593;DHT22;58294;42.988;20.338;2023-02-28T03:22:44;179.30;1945.60
70593;DHT22;58294;42.988;20.338;2023-02-28T03:30:36;179.20;1945.60
70593;DHT22;58294;42.988;20.338;2023-02-28T03:33:04;179.20;1945.60
70593;DHT22;58294;42.988;20.338;2023-02-28T03:35:36;179.20;1971.20
70593;DHT22;58294;42.988;20.338;2023-02-28T03:38:11;179.30;1971.20
70593;DHT22;58294;42.988;20.338;2023-02-28T03:40:39;179.30;1945.60
70593;DHT22;58294;42.988;20.338;2023-02-28T03:43:11;179.30;1945.60
70593;DHT22;58294;42.988;20.338;2023-02-28T03:45:38;179.30;1945.60
70593;DHT22;58294;42.988;20.338;2023-02-28T03:48:15;179.30;1945.60
70593;DHT22;58294;42.988;20.338;2023-02-28T03:50:44;179.30;1945.60
70593;DHT22;58294;42.988;20.338;2023-02-28T03:53:11;179.30;1945.60
70593;DHT22;58294;42.988;20.338;2023-02-28T03:55:41;179.30;1945.60
70593;DHT22;58294;42.988;20.338;2023-02-28T04:00:49;179.30;1971.20
70593;DHT22;58294;42.988;20.338;2023-02-28T04:03:17;179.30;1971.20
70593;DHT22;58294;42.988;20.338;2023-02-28T04:05:54;179.30;1945.60
70593;DHT22;58294;42.988;20.338;2023-02-28T04:08:21;179.30;1971.20
70593;DHT22;58294;42.988;20.338;2023-02-28T04:10:52;179.40;1971.20
70593;DHT22;58294;42.988;20.338;2023-02-28T04:13:18;179.30;1971.20
70593;DHT22;58294;42.988;20.338;2023-02-28T04:15:44;179.30;1971.20
70593;DHT22;58294;42.988;20.338;2023-02-28T04:18:09;179.40;1971.20
70593;DHT22;58294;42.988;20.338;2023-02-28T04:20:35;179.40;1971.20
70593;DHT22;58294;42.988;20.338;2023-02-28T04:23:00;179.30;1945.60
70593;DHT22;58294;42.988;20.338;2023-02-28T04:25:26;179.30;1945.60
70593;DHT22;58294;42.988;20.338;2023-02-28T04:27:51;179.30;1945.60
70593;DHT22;58294;42.988;20.338;2023-02-28T04:30:17;179.30;1945.60
70593;DHT22;58294;42.988;20.338;2023-02-28T04:32:43;179.30;1945.60
70593;DHT22;58294;42.988;20.338;2023-02-28T04:35:08;179.40;1945.60
70593;DHT22;58294;42.988;20.338;2023-02-28T04:37:34;179.40;1945.60
70593;DHT22;58294;42.988;20.338;2023-02-28T04:40:02;179.40;1945.60
70593;DHT22;58294;42.988;20.338;2023-02-28T04:42:28;179.40;1945.60
70593;DHT22;58294;42.988;20.338;2023-02-28T04:45:01;179.40;1945.60
70593;DHT22;58294;42.988;20.338;2023-02-28T04:47:28;179.40;1920.00
70593;DHT22;58294;42.988;20.338;2023-02-28T04:49:53;179.40;1945.60
70593;DHT22;58294;42.988;20.338;2023-02-28T04:52:19;179.30;1945.60
70593;DHT22;58294;42.988;20.338;2023-02-28T04:54:44;179.30;1945.60
70593;DHT22;58294;42.988;20.338;2023-02-28T04:57:10;179.30;1920.00
70593;DHT22;58294;42.988;20.338;2023-02-28T04:59:36;179.30;1920.00
70593;DHT22;58294;42.988;20.338;2023-02-28T05:02:01;179.30;1945.60
70593;DHT22;58294;42.988;20.338;2023-02-28T05:04:34;179.30;1945.60
70593;DHT22;58294;42.988;20.338;2023-02-28T05:07:00;179.30;1945.60
70593;DHT22;58294;42.988;20.338;2023-02-28T05:09:25;179.30;1945.60
70593;DHT22;58294;42.988;20.338;2023-02-28T05:11:51;179.30;1971.20
70593;DHT22;58294;42.988;20.338;2023-02-28T05:14:17;179.30;1945.60
70593;DHT22;58294;42.988;20.338;2023-02-28T05:16:42;179.20;1945.60
70593;DHT22;58294;42.988;20.338;2023-02-28T05:19:08;179.20;1971.20
70593;DHT22;58294;42.988;20.338;2023-02-28T05:21:35;179.20;1971.20
70593;DHT22;58294;42.988;20.338;2023-02-28T05:24:02;179.30;1971.20
70593;DHT22;58294;42.988;20.338;2023-02-28T05:26:28;179.20;1945.60
70593;DHT22;58294;42.988;20.338;2023-02-28T05:28:54;179.20;1945.60
70593;DHT22;58294;42.988;20.338;2023-02-28T05:31:19;179.20;1971.20
70593;DHT22;58294;42.988;20.338;2023-02-28T05:33:45;179.20;1971.20
70593;DHT22;58294;42.988;20.338;2023-02-28T05:36:11;179.20;1971.20
70593;DHT22;58294;42.988;20.338;2023-02-28T05:38:37;179.20;1971.20
70593;DHT22;58294;42.988;20.338;2023-02-28T05:41:09;179.30;1945.60
70593;DHT22;58294;42.988;20.338;2023-02-28T05:43:35;179.20;1945.60
70593;DHT22;58294;42.988;20.338;2023-02-28T05:46:03;179.20;1971.20
70593;DHT22;58294;42.988;20.338;2023-02-28T05:48:28;179.20;1971.20
70593;DHT22;58294;42.988;20.338;2023-02-28T05:50:54;179.20;1971.20
70593;DHT22;58294;42.988;20.338;2023-02-28T05:53:20;179.20;1945.60
70593;DHT22;58294;42.988;20.338;2023-02-28T05:55:46;179.20;1971.20
70593;DHT22;58294;42.988;20.338;2023-02-28T05:58:11;154.50;1971.20
70593;DHT22;58294;42.988;20.338;2023-02-28T06:00:37;154.50;1971.20
70593;DHT22;58294;42.988;20.338;2023-02-28T06:03:02;179.20;1996.80
70593;DHT22;58294;42.988;20.338;2023-02-28T06:05:28;154.50;1971.20
70593;DHT22;58294;42.988;20.338;2023-02-28T06:07:53;154.50;1971.20
70593;DHT22;58294;42.988;20.338;2023-02-28T06:10:19;154.50;1996.80
70593;DHT22;58294;42.988;20.338;2023-02-28T06:12:45;154.50;1996.80
70593;DHT22;58294;42.988;20.338;2023-02-28T06:15:14;154.50;1971.20
70593;DHT22;58294;42.988;20.338;2023-02-28T06:17:40;154.50;1996.80
70593;DHT22;58294;42.988;20.338;2023-02-28T06:20:07;154.50;1996.80
70593;DHT22;58294;42.988;20.338;2023-02-28T06:22:34;154.50;1996.80
70593;DHT22;58294;42.988;20.338;2023-02-28T06:25:00;154.50;1996.80
70593;DHT22;58294;42.988;20.338;2023-02-28T06:27:26;154.50;1996.80
70593;DHT22;58294;42.988;20.338;2023-02-28T06:29:53;179.20;2022.40
70593;DHT22;58294;42.988;20.338;2023-02-28T06:32:20;179.20;2022.40
70593;DHT22;58294;42.988;20.338;2023-02-28T06:34:45;179.20;1996.80
70593;DHT22;58294;42.988;20.338;2023-02-28T06:37:11;179.20;1996.80
70593;DHT22;58294;42.988;20.338;2023-02-28T06:39:36;179.30;2022.40
70593;DHT22;58294;42.988;20.338;2023-02-28T06:42:02;179.30;2022.40
70593;DHT22;58294;42.988;20.338;2023-02-28T06:44:27;179.40;1996.80
70593;DHT22;58294;42.988;20.338;2023-02-28T06:47:00;179.40;2022.40
70593;DHT22;58294;42.988;20.338;2023-02-28T06:49:27;179.50;2022.40
70593;DHT22;58294;42.988;20.338;2023-02-28T06:51:53;179.50;1996.80
70593;DHT22;58294;42.988;20.338;2023-02-28T06:54:19;179.50;2022.40
70593;DHT22;58294;42.988;20.338;2023-02-28T06:56:44;179.60;1996.80
70593;DHT22;58294;42.988;20.338;2023-02-28T06:59:10;179.60;1996.80
70593;DHT22;58294;42.988;20.338;2023-02-28T07:01:35;179.60;2022.40
70593;DHT22;58294;42.988;20.338;2023-02-28T07:04:02;179.70;1996.80
70593;DHT22;58294;42.988;20.338;2023-02-28T07:06:28;179.70;1996.80
70593;DHT22;58294;42.988;20.338;2023-02-28T07:08:53;179.70;1996.80
70593;DHT22;58294;42.988;20.338;2023-02-28T07:11:20;179.80;1996.80
70593;DHT22;58294;42.988;20.338;2023-02-28T07:13:46;179.80;2022.40
70593;DHT22;58294;42.988;20.338;2023-02-28T07:16:13;179.80;1996.80
70593;DHT22;58294;42.988;20.338;2023-02-28T07:18:39;179.80;1996.80
70593;DHT22;58294;42.988;20.338;2023-02-28T07:21:05;179.90;1996.80
70593;DHT22;58294;42.988;20.338;2023-02-28T07:23:31;179.90;1971.20
70593;DHT22;58294;42.988;20.338;2023-02-28T07:25:57;179.90;1971.20
70593;DHT22;58294;42.988;20.338;2023-02-28T07:28:23;179.90;1971.20
70593;DHT22;58294;42.988;20.338;2023-02-28T07:30:48;179.90;1971.20
70593;DHT22;58294;42.988;20.338;2023-02-28T07:33:14;179.90;1971.20
70593;DHT22;58294;42.988;20.338;2023-02-28T07:35:40;179.90;1971.20
70593;DHT22;58294;42.988;20.338;2023-02-28T07:38:05;179.90;1971.20
70593;DHT22;58294;42.988;20.338;2023-02-28T07:40:33;179.90;1971.20
70593;DHT22;58294;42.988;20.338;2023-02-28T07:42:59;179.80;1971.20
70593;DHT22;58294;42.988;20.338;2023-02-28T07:45:24;179.80;1971.20
70593;DHT22;58294;42.988;20.338;2023-02-28T07:47:50;179.90;1996.80
70593;DHT22;58294;42.988;20.338;2023-02-28T07:50:15;179.90;1971.20
70593;DHT22;58294;42.988;20.338;2023-02-28T07:52:41;180.00;1996.80
70593;DHT22;58294;42.988;20.338;2023-02-28T07:55:07;180.00;1996.80
70593;DHT22;58294;42.988;20.338;2023-02-28T07:57:33;180.10;1996.80
70593;DHT22;58294;42.988;20.338;2023-02-28T07:59:59;180.10;1996.80
70593;DHT22;58294;42.988;20.338;2023-02-28T08:02:25;204.80;2022.40
70593;DHT22;58294;42.988;20.338;2023-02-28T08:04:50;204.90;1996.80
70593;DHT22;58294;42.988;20.338;2023-02-28T08:07:16;204.90;1996.80
70593;DHT22;58294;42.988;20.338;2023-02-28T08:09:42;204.90;1945.60
70593;DHT22;58294;42.988;20.338;2023-02-28T08:12:08;204.90;1945.60
70593;DHT22;58294;42.988;20.338;2023-02-28T08:14:34;204.90;1945.60
70593;DHT22;58294;42.988;20.338;2023-02-28T08:17:00;204.90;1945.60
70593;DHT22;58294;42.988;20.338;2023-02-28T08:19:26;204.90;1945.60
70593;DHT22;58294;42.988;20.338;2023-02-28T08:21:51;204.90;1971.20
70593;DHT22;58294;42.988;20.338;2023-02-28T08:24:17;205.00;1996.80
70593;DHT22;58294;42.988;20.338;2023-02-28T08:26:42;205.00;1996.80
70593;DHT22;58294;42.988;20.338;2023-02-28T08:29:08;205.20;1996.80
70593;DHT22;58294;42.988;20.338;2023-02-28T08:31:34;205.20;1971.20
70593;DHT22;58294;42.988;20.338;2023-02-28T08:34:09;205.20;1971.20
70593;DHT22;58294;42.988;20.338;2023-02-28T08:36:36;205.20;1945.60
70593;DHT22;58294;42.988;20.338;2023-02-28T08:39:01;205.20;1945.60
70593;DHT22;58294;42.988;20.338;2023-02-28T08:41:28;205.20;1971.20
70593;DHT22;58294;42.988;20.338;2023-02-28T08:43:53;205.20;1971.20
70593;DHT22;58294;42.988;20.338;2023-02-28T08:46:19;205.30;1971.20
70593;DHT22;58294;42.988;20.338;2023-02-28T08:48:45;205.30;1945.60
70593;DHT22;58294;42.988;20.338;2023-02-28T08:51:12;205.40;1971.20
70593;DHT22;58294;42.988;20.338;2023-02-28T08:53:39;205.40;1945.60
70593;DHT22;58294;42.988;20.338;2023-02-28T08:56:06;205.40;1971.20
70593;DHT22;58294;42.988;20.338;2023-02-28T08:58:32;205.50;2022.40
70593;DHT22;58294;42.988;20.338;2023-02-28T09:00:58;205.70;1996.80
70593;DHT22;58294;42.988;20.338;2023-02-28T09:03:23;205.70;1971.20
70593;DHT22;58294;42.988;20.338;2023-02-28T09:05:56;230.40;1996.80
70593;DHT22;58294;42.988;20.338;2023-02-28T09:08:22;230.60;1996.80
70593;DHT22;58294;42.988;20.338;2023-02-28T09:10:48;230.60;1945.60
70593;DHT22;58294;42.988;20.338;2023-02-28T09:13:14;230.70;1945.60
70593;DHT22;58294;42.988;20.338;2023-02-28T09:15:40;230.70;1945.60
70593;DHT22;58294;42.988;20.338;2023-02-28T09:18:05;230.70;1920.00
70593;DHT22;58294;42.988;20.338;2023-02-28T09:20:31;230.80;1945.60
70593;DHT22;58294;42.988;20.338;2023-02-28T09:22:56;230.80;1920.00
70593;DHT22;58294;42.988;20.338;2023-02-28T09:25:22;230.80;1894.40
70593;DHT22;58294;42.988;20.338;2023-02-28T09:27:47;230.80;1868.80
70593;DHT22;58294;42.988;20.338;2023-02-28T09:30:13;230.80;1894.40
70593;DHT22;58294;42.988;20.338;2023-02-28T09:32:39;230.80;1920.00
70593;DHT22;58294;42.988;20.338;2023-02-28T09:35:05;230.80;1894.40
70593;DHT22;58294;42.988;20.338;2023-02-28T09:37:30;230.80;1920.00
70593;DHT22;58294;42.988;20.338;2023-02-28T09:39:56;230.80;1894.40
70593;DHT22;58294;42.988;20.338;2023-02-28T09:42:30;230.80;1894.40
70593;DHT22;58294;42.988;20.338;2023-02-28T09:44:56;230.80;1894.40
70593;DHT22;58294;42.988;20.338;2023-02-28T09:47:30;230.80;1894.40
70593;DHT22;58294;42.988;20.338;2023-02-28T09:49:59;230.80;1894.40
70593;DHT22;58294;42.988;20.338;2023-02-28T09:52:29;230.90;1920.00
70593;DHT22;58294;42.988;20.338;2023-02-28T09:54:55;230.90;1894.40
70593;DHT22;58294;42.988;20.338;2023-02-28T10:05:43;230.90;1894.40
70593;DHT22;58294;42.988;20.338;2023-02-28T10:08:14;230.90;1894.40
70593;DHT22;58294;42.988;20.338;2023-02-28T10:10:44;231.00;1894.40
70593;DHT22;58294;42.988;20.338;2023-02-28T10:15:57;231.10;1920.00
70593;DHT22;58294;42.988;20.338;2023-02-28T10:18:27;231.20;1920.00
70593;DHT22;58294;42.988;20.338;2023-02-28T10:20:54;231.30;1868.80
70593;DHT22;58294;42.988;20.338;2023-02-28T10:23:22;231.30;1894.40
70593;DHT22;58294;42.988;20.338;2023-02-28T10:25:59;231.30;1843.20
70593;DHT22;58294;42.988;20.338;2023-02-28T10:28:26;231.30;1868.80
70593;DHT22;58294;42.988;20.338;2023-02-28T10:30:53;231.30;1843.20
70593;DHT22;58294;42.988;20.338;2023-02-28T10:33:21;256.00;1894.40
70593;DHT22;58294;42.988;20.338;2023-02-28T10:35:47;256.10;1868.80
70593;DHT22;58294;42.988;20.338;2023-02-28T10:38:15;256.10;1843.20
70593;DHT22;58294;42.988;20.338;2023-02-28T10:40:41;256.10;1843.20
70593;DHT22;58294;42.988;20.338;2023-02-28T10:45:39;256.10;1843.20
70593;DHT22;58294;42.988;20.338;2023-02-28T10:53:16;256.20;1817.60
70593;DHT22;58294;42.988;20.338;2023-02-28T10:55:43;256.30;1843.20
70593;DHT22;58294;42.988;20.338;2023-02-28T10:58:22;256.40;1843.20
70593;DHT22;58294;42.988;20.338;2023-02-28T11:00:48;256.40;1843.20
70593;DHT22;58294;42.988;20.338;2023-02-28T11:03:24;256.60;1868.80
70593;DHT22;58294;42.988;20.338;2023-02-28T11:05:50;256.60;1843.20
70593;DHT22;58294;42.988;20.338;2023-02-28T11:08:16;256.70;1792.00
70593;DHT22;58294;42.988;20.338;2023-02-28T11:11:15;256.60;1766.40
70593;DHT22;58294;42.988;20.338;2023-02-28T11:13:35;256.60;1817.60
70593;DHT22;58294;42.988;20.338;2023-02-28T11:16:04;256.60;1843.20
70593;DHT22;58294;42.988;20.338;2023-02-28T11:18:32;256.70;1843.20
70593;DHT22;58294;42.988;20.338;2023-02-28T11:20:59;256.80;1843.20
70593;DHT22;58294;42.988;20.338;2023-02-28T11:23:27;256.90;1868.80
70593;DHT22;58294;42.988;20.338;2023-02-28T11:25:54;281.60;1843.20
70593;DHT22;58294;42.988;20.338;2023-02-28T11:31:04;281.70;1868.80
70593;DHT22;58294;42.988;20.338;2023-02-28T11:36:04;256.90;1817.60
70593;DHT22;58294;42.988;20.338;2023-02-28T11:38:34;281.60;1868.80
70593;DHT22;58294;42.988;20.338;2023-02-28T11:48:54;281.90;1843.20
70593;DHT22;58294;42.988;20.338;2023-02-28T11:51:27;281.80;1817.60
70593;DHT22;58294;42.988;20.338;2023-02-28T12:14:32;282.40;1817.60
70593;DHT22;58294;42.988;20.338;2023-02-28T12:17:12;282.30;1868.80
70593;DHT22;58294;42.988;20.338;2023-02-28T12:19:57;282.30;1817.60
70593;DHT22;58294;42.988;20.338;2023-02-28T12:27:28;282.20;1766.40
70593;DHT22;58294;42.988;20.338;2023-02-28T12:30:03;282.20;1817.60
70593;DHT22;58294;42.988;20.338;2023-02-28T12:35:02;282.20;1766.40
70593;DHT22;58294;42.988;20.338;2023-02-28T12:40:28;282.10;1817.60
70593;DHT22;58294;42.988;20.338;2023-02-28T12:43:02;282.00;1766.40
70593;DHT22;58294;42.988;20.338;2023-02-28T12:45:39;281.90;1817.60
70593;DHT22;58294;42.988;20.338;2023-02-28T12:48:06;282.00;1792.00
70593;DHT22;58294;42.988;20.338;2023-02-28T12:50:33;281.90;1792.00
70593;DHT22;58294;42.988;20.338;2023-02-28T12:55:36;281.60;1740.80
70593;DHT22;58294;42.988;20.338;2023-02-28T12:58:14;256.90;1766.40
70593;DHT22;58294;42.988;20.338;2023-02-28T13:00:49;281.60;1843.20
70593;DHT22;58294;42.988;20.338;2023-02-28T13:03:36;281.60;1843.20
70593;DHT22;58294;42.988;20.338;2023-02-28T13:06:20;281.70;1868.80
70593;DHT22;58294;42.988;20.338;2023-02-28T13:09:01;281.80;1868.80
70593;DHT22;58294;42.988;20.338;2023-02-28T13:11:29;281.90;1868.80
70593;DHT22;58294;42.988;20.338;2023-02-28T13:13:59;281.70;1792.00
70593;DHT22;58294;42.988;20.338;2023-02-28T13:16:25;281.60;1817.60
70593;DHT22;58294;42.988;20.338;2023-02-28T13:18:50;281.60;1817.60
70593;DHT22;58294;42.988;20.338;2023-02-28T13:21:24;281.60;1868.80
70593;DHT22;58294;42.988;20.338;2023-02-28T13:32:18;281.70;1843.20
70593;DHT22;58294;42.988;20.338;2023-02-28T13:34:20;281.80;1868.80
70593;DHT22;58294;42.988;20.338;2023-02-28T13:36:46;281.80;1868.80
70593;DHT22;58294;42.988;20.338;2023-02-28T13:41:56;281.90;1868.80
70593;DHT22;58294;42.988;20.338;2023-02-28T13:44:22;281.90;1843.20
70593;DHT22;58294;42.988;20.338;2023-02-28T13:52:01;281.80;1843.20
70593;DHT22;58294;42.988;20.338;2023-02-28T13:54:45;281.80;1843.20
70593;DHT22;58294;42.988;20.338;2023-02-28T13:57:24;281.80;1843.20
70593;DHT22;58294;42.988;20.338;2023-02-28T14:02:34;281.90;1843.20
70593;DHT22;58294;42.988;20.338;2023-02-28T14:05:05;281.90;1868.80
70593;DHT22;58294;42.988;20.338;2023-02-28T14:07:43;281.90;1868.80
70593;DHT22;58294;42.988;20.338;2023-02-28T14:10:16;282.00;1868.80
70593;DHT22;58294;42.988;20.338;2023-02-28T14:18:14;282.00;1843.20
70593;DHT22;58294;42.988;20.338;2023-02-28T14:20:40;282.00;1843.20
70593;DHT22;58294;42.988;20.338;2023-02-28T14:25:43;281.80;1766.40
70593;DHT22;58294;42.988;20.338;2023-02-28T14:28:20;281.70;1792.00
70593;DHT22;58294;42.988;20.338;2023-02-28T14:30:56;281.70;1817.60
70593;DHT22;58294;42.988;20.338;2023-02-28T14:38:27;281.70;1817.60
70593;DHT22;58294;42.988;20.338;2023-02-28T14:40:54;281.60;1792.00
70593;DHT22;58294;42.988;20.338;2023-02-28T14:43:24;256.90;1792.00
70593;DHT22;58294;42.988;20.338;2023-02-28T14:45:51;281.60;1843.20
70593;DHT22;58294;42.988;20.338;2023-02-28T14:48:18;256.90;1766.40
70593;DHT22;58294;42.988;20.338;2023-02-28T14:51:02;256.80;1792.00
70593;DHT22;58294;42.988;20.338;2023-02-28T14:53:29;256.80;1817.60
70593;DHT22;58294;42.988;20.338;2023-02-28T14:55:55;256.80;1792.00
70593;DHT22;58294;42.988;20.338;2023-02-28T15:00:47;256.80;1868.80
70593;DHT22;58294;42.988;20.338;2023-02-28T15:03:17;281.60;1894.40
70593;DHT22;58294;42.988;20.338;2023-02-28T15:05:50;281.60;1894.40
70593;DHT22;58294;42.988;20.338;2023-02-28T15:08:17;281.70;1868.80
70593;DHT22;58294;42.988;20.338;2023-02-28T15:10:50;281.70;1868.80
70593;DHT22;58294;42.988;20.338;2023-02-28T15:13:16;281.80;1868.80
70593;DHT22;58294;42.988;20.338;2023-02-28T15:15:56;281.70;1843.20
70593;DHT22;58294;42.988;20.338;2023-02-28T15:21:07;281.70;1843.20
70593;DHT22;58294;42.988;20.338;2023-02-28T15:23:36;281.70;1868.80
70593;DHT22;58294;42.988;20.338;2023-02-28T15:26:02;281.70;1868.80
70593;DHT22;58294;42.988;20.338;2023-02-28T15:28:27;281.70;1868.80
70593;DHT22;58294;42.988;20.338;2023-02-28T15:30:57;281.80;1843.20
70593;DHT22;58294;42.988;20.338;2023-02-28T15:33:25;281.80;1868.80
70593;DHT22;58294;42.988;20.338;2023-02-28T15:35:51;281.80;1843.20
70593;DHT22;58294;42.988;20.338;2023-02-28T15:38:23;281.70;1817.60
70593;DHT22;58294;42.988;20.338;2023-02-28T15:40:53;281.70;1817.60
70593;DHT22;58294;42.988;20.338;2023-02-28T15:46:01;281.60;1817.60
70593;DHT22;58294;42.988;20.338;2023-02-28T15:48:28;281.60;1817.60
70593;DHT22;58294;42.988;20.338;2023-02-28T15:53:28;256.80;1792.00
70593;DHT22;58294;42.988;20.338;2023-02-28T15:56:00;256.70;1766.40
70593;DHT22;58294;42.988;20.338;2023-02-28T15:58:26;256.50;1766.40
70593;DHT22;58294;42.988;20.338;2023-02-28T16:01:04;256.40;1792.00
70593;DHT22;58294;42.988;20.338;2023-02-28T16:03:48;256.40;1817.60
70593;DHT22;58294;42.988;20.338;2023-02-28T16:08:59;256.50;1817.60
70593;DHT22;58294;42.988;20.338;2023-02-28T16:11:25;256.50;1817.60
70593;DHT22;58294;42.988;20.338;2023-02-28T16:13:50;256.40;1817.60
70593;DHT22;58294;42.988;20.338;2023-02-28T16:16:17;256.40;1792.00
70593;DHT22;58294;42.988;20.338;2023-02-28T16:18:43;256.40;1817.60
70593;DHT22;58294;42.988;20.338;2023-02-28T16:21:09;256.40;1817.60
70593;DHT22;58294;42.988;20.338;2023-02-28T16:23:34;256.30;1792.00
70593;DHT22;58294;42.988;20.338;2023-02-28T16:26:00;256.30;1817.60
70593;DHT22;58294;42.988;20.338;2023-02-28T16:28:30;256.30;1817.60
70593;DHT22;58294;42.988;20.338;2023-02-28T16:30:58;256.20;1817.60
70593;DHT22;58294;42.988;20.338;2023-02-28T16:33:24;256.20;1817.60
70593;DHT22;58294;42.988;20.338;2023-02-28T16:35:50;256.10;1817.60
70593;DHT22;58294;42.988;20.338;2023-02-28T16:38:15;256.10;1817.60
70593;DHT22;58294;42.988;20.338;2023-02-28T16:40:41;256.10;1817.60
70593;DHT22;58294;42.988;20.338;2023-02-28T16:43:07;256.00;1843.20
70593;DHT22;58294;42.988;20.338;2023-02-28T16:45:35;256.00;1843.20
70593;DHT22;58294;42.988;20.338;2023-02-28T16:48:01;256.00;1843.20
70593;DHT22;58294;42.988;20.338;2023-02-28T16:50:27;256.00;1843.20
70593;DHT22;58294;42.988;20.338;2023-02-28T16:52:53;231.30;1817.60
70593;DHT22;58294;42.988;20.338;2023-02-28T16:55:20;231.10;1843.20
70593;DHT22;58294;42.988;20.338;2023-02-28T16:57:50;231.10;1868.80
70593;DHT22;58294;42.988;20.338;2023-02-28T17:00:17;231.00;1843.20
70593;DHT22;58294;42.988;20.338;2023-02-28T17:02:43;230.90;1868.80